createdAt,value
2018-12-09T00:02:24.085Z,9.23
2018-12-09T00:05:02.649Z,9.53
2018-12-09T00:07:40.869Z,8.70
2018-12-09T00:10:16.904Z,9.13
2018-12-09T00:17:53.097Z,10.20
2018-12-09T00:20:29.128Z,9.20
2018-12-09T00:23:01.597Z,9.43
2018-12-09T00:25:33.675Z,9.00
2018-12-09T00:28:06.517Z,9.20
2018-12-09T00:30:42.666Z,10.37
2018-12-09T00:33:15.557Z,8.97
2018-12-09T00:35:48.449Z,8.40
2018-12-09T00:38:20.943Z,9.83
2018-12-09T00:40:53.935Z,8.57
2018-12-09T00:43:26.532Z,8.97
2018-12-09T00:45:58.700Z,9.47
2018-12-09T00:48:30.930Z,8.97
2018-12-09T00:51:07.904Z,9.40
2018-12-09T00:53:43.993Z,9.13
2018-12-09T00:56:16.354Z,8.73
2018-12-09T00:58:49.213Z,8.80
2018-12-09T01:01:21.612Z,8.90
2018-12-09T01:03:53.739Z,8.47
2018-12-09T01:06:26.502Z,8.97
2018-12-09T01:08:59.056Z,9.40
2018-12-09T01:11:31.098Z,9.77
2018-12-09T01:14:03.781Z,9.60
2018-12-09T01:16:36.672Z,9.93
2018-12-09T01:21:39.635Z,9.50
2018-12-09T01:24:15.723Z,9.63
2018-12-09T01:26:46.675Z,9.80
2018-12-09T01:29:17.631Z,9.40
2018-12-09T01:31:49.912Z,9.27
2018-12-09T01:34:22.022Z,9.37
2018-12-09T01:36:58.180Z,9.73
2018-12-09T01:39:34.743Z,9.73
2018-12-09T01:42:11.733Z,9.07
2018-12-09T01:44:43.924Z,10.00
2018-12-09T01:47:14.286Z,9.70
2018-12-09T01:49:47.357Z,9.00
2018-12-09T01:52:19.474Z,9.60
2018-12-09T01:54:51.787Z,9.10
2018-12-09T01:57:27.853Z,8.37
2018-12-09T02:00:00.277Z,8.00
2018-12-09T02:02:37.372Z,7.80
2018-12-09T02:05:09.429Z,7.77
2018-12-09T02:07:42.500Z,8.67
2018-12-09T02:10:14.719Z,7.80
2018-12-09T02:12:51.092Z,8.30
2018-12-09T02:15:28.155Z,8.33
2018-12-09T02:18:04.422Z,7.20
2018-12-09T02:20:40.454Z,7.77
2018-12-09T02:23:12.775Z,8.63
2018-12-09T02:25:45.794Z,7.60
2018-12-09T02:28:15.887Z,8.40
2018-12-09T02:30:47.956Z,8.97
2018-12-09T02:33:24.938Z,7.83
2018-12-09T02:36:01.861Z,9.17
2018-12-09T02:38:34.802Z,7.87
2018-12-09T02:41:11.311Z,8.43
2018-12-09T02:43:44.237Z,8.33
2018-12-09T02:46:17.243Z,8.37
2018-12-09T02:48:49.515Z,8.73
2018-12-09T02:51:25.818Z,9.10
2018-12-09T02:53:57.959Z,8.27
2018-12-09T02:56:34.029Z,9.10
2018-12-09T02:59:06.189Z,8.80
2018-12-09T03:01:38.273Z,9.17
2018-12-09T03:04:10.518Z,8.03
2018-12-09T03:06:44.504Z,8.13
2018-12-09T03:09:20.539Z,8.10
2018-12-09T03:11:57.797Z,8.87
2018-12-09T03:14:31.070Z,7.83
2018-12-09T03:17:01.258Z,7.93
2018-12-09T03:19:38.313Z,8.77
2018-12-09T03:22:14.948Z,7.30
2018-12-09T03:24:47.774Z,20.53
2018-12-09T03:27:23.964Z,13.73
2018-12-09T03:30:00.413Z,9.80
2018-12-09T03:32:32.652Z,8.10
2018-12-09T03:35:09.344Z,8.27
2018-12-09T03:37:42.124Z,8.43
2018-12-09T03:40:14.780Z,7.60
2018-12-09T03:42:47.197Z,7.50
2018-12-09T03:45:20.170Z,7.53
2018-12-09T03:47:58.225Z,8.37
2018-12-09T03:50:30.757Z,7.43
2018-12-09T03:53:08.942Z,8.17
2018-12-09T03:55:39.072Z,7.53
2018-12-09T03:58:11.162Z,8.43
2018-12-09T04:00:47.374Z,7.93
2018-12-09T04:03:19.485Z,7.57
2018-12-09T04:05:58.622Z,7.47
2018-12-09T04:08:30.819Z,8.07
2018-12-09T04:11:03.342Z,7.83
2018-12-09T04:13:36.227Z,8.37
2018-12-09T04:16:06.549Z,8.67
2018-12-09T04:18:40.766Z,8.60
2018-12-09T04:21:14.292Z,8.37
2018-12-09T04:23:47.093Z,7.83
2018-12-09T04:26:23.832Z,8.17
2018-12-09T04:28:57.524Z,7.23
2018-12-09T04:31:29.849Z,7.87
2018-12-09T04:34:05.881Z,8.27
2018-12-09T04:36:41.976Z,8.07
2018-12-09T04:39:12.267Z,7.37
2018-12-09T04:41:46.009Z,7.40
2018-12-09T04:44:23.385Z,8.20
2018-12-09T04:46:56.117Z,7.53
2018-12-09T04:49:29.322Z,7.87
2018-12-09T04:52:06.933Z,8.13
2018-12-09T04:54:39.304Z,10.37
2018-12-09T04:57:09.416Z,10.23
2018-12-09T04:59:48.205Z,9.33
2018-12-09T05:02:20.945Z,7.83
2018-12-09T05:04:57.060Z,7.83
2018-12-09T05:07:29.383Z,6.70
2018-12-09T05:10:05.972Z,7.10
2018-12-09T05:12:38.835Z,6.87
2018-12-09T05:15:11.229Z,6.77
2018-12-09T05:17:47.322Z,6.73
2018-12-09T05:20:23.446Z,6.67
2018-12-09T05:22:53.577Z,6.70
2018-12-09T05:25:25.744Z,6.70
2018-12-09T05:27:58.739Z,6.00
2018-12-09T05:40:30.949Z,6.50
2018-12-09T05:43:03.508Z,5.73
2018-12-09T05:45:35.809Z,5.87
2018-12-09T05:48:11.854Z,5.57
2018-12-09T05:50:41.876Z,6.40
2018-12-09T05:53:14.124Z,5.93
2018-12-09T05:55:50.441Z,6.30
2018-12-09T05:58:25.107Z,6.00
2018-12-09T06:00:57.291Z,5.50
2018-12-09T06:03:34.254Z,5.83
2018-12-09T06:06:04.369Z,5.50
2018-12-09T06:08:36.377Z,5.60
2018-12-09T06:11:12.468Z,6.40
2018-12-09T06:13:42.863Z,5.37
2018-12-09T06:16:16.806Z,6.43
2018-12-09T06:18:52.915Z,7.90
2018-12-09T06:21:25.473Z,8.70
2018-12-09T06:23:57.744Z,9.43
2018-12-09T06:26:30.124Z,10.97
2018-12-09T06:29:06.251Z,9.47
2018-12-09T06:31:42.677Z,11.23
2018-12-09T06:34:19.620Z,10.10
2018-12-09T06:36:55.871Z,10.30
2018-12-09T06:39:31.921Z,10.10
2018-12-09T06:47:05.865Z,7.70
2018-12-09T06:49:37.946Z,6.40
2018-12-09T06:52:10.795Z,7.60
2018-12-09T06:54:43.687Z,9.03
2018-12-09T06:57:16.782Z,7.63
2018-12-09T06:59:48.839Z,7.83
2018-12-09T07:02:25.097Z,7.03
2018-12-09T07:04:58.057Z,6.67
2018-12-09T07:07:30.272Z,7.07
2018-12-09T07:10:02.633Z,7.20
2018-12-09T07:12:35.597Z,6.10
2018-12-09T07:15:08.112Z,6.20
2018-12-09T07:17:40.975Z,7.67
2018-12-09T07:20:17.219Z,6.90
2018-12-09T07:22:53.335Z,7.30
2018-12-09T07:25:26.321Z,6.60
2018-12-09T07:27:58.486Z,6.60
2018-12-09T07:30:30.828Z,6.23
2018-12-09T07:33:03.848Z,6.30
2018-12-09T07:35:39.843Z,9.90
2018-12-09T07:38:12.202Z,7.90
2018-12-09T07:40:44.538Z,7.30
2018-12-09T07:43:17.546Z,7.87
2018-12-09T07:45:49.626Z,8.00
2018-12-09T07:50:57.671Z,10.33
2018-12-09T07:53:29.993Z,10.23
2018-12-09T07:56:06.301Z,10.03
2018-12-09T07:58:38.742Z,9.20
2018-12-09T08:01:10.763Z,9.00
2018-12-09T08:03:47.460Z,9.20
2018-12-09T08:06:18.374Z,8.00
2018-12-09T08:08:50.426Z,8.07
2018-12-09T08:11:26.831Z,8.20
2018-12-09T08:13:59.797Z,8.60
2018-12-09T08:16:29.966Z,11.60
2018-12-09T08:19:00.214Z,10.00
2018-12-09T08:21:36.351Z,8.80
2018-12-09T08:24:08.615Z,8.30
2018-12-09T08:26:44.876Z,8.53
2018-12-09T08:29:21.182Z,9.00
2018-12-09T08:31:53.664Z,9.77
2018-12-09T08:34:29.705Z,8.87
2018-12-09T08:37:05.915Z,12.17
2018-12-09T08:39:42.052Z,9.87
2018-12-09T08:42:15.136Z,9.00
2018-12-09T08:44:47.251Z,8.23
2018-12-09T08:47:20.213Z,7.60
2018-12-09T08:49:56.818Z,7.50
2018-12-09T08:59:59.431Z,7.17
2018-12-09T09:02:36.463Z,7.70
2018-12-09T09:05:09.379Z,7.07
2018-12-09T09:07:41.499Z,6.67
2018-12-09T09:10:17.799Z,7.17
2018-12-09T09:12:55.030Z,6.60
2018-12-09T09:15:25.060Z,7.27
2018-12-09T09:17:56.011Z,6.67
2018-12-09T09:20:28.827Z,6.83
2018-12-09T09:23:05.147Z,7.00
2018-12-09T09:25:37.532Z,7.87
2018-12-09T09:28:09.869Z,8.17
2018-12-09T09:30:46.127Z,7.80
2018-12-09T09:33:22.148Z,8.20
2018-12-09T09:35:54.579Z,7.80
2018-12-09T09:38:27.420Z,8.37
2018-12-09T09:40:59.756Z,8.57
2018-12-09T09:43:36.038Z,9.60
2018-12-09T09:46:08.076Z,8.07
2018-12-09T09:48:40.352Z,8.40
2018-12-09T09:51:16.791Z,8.97
2018-12-09T09:53:49.023Z,8.70
2018-12-09T09:56:21.109Z,7.90
2018-12-09T09:58:57.234Z,7.40
2018-12-09T10:01:30.126Z,7.90
2018-12-09T10:14:00.938Z,7.97
2018-12-09T10:19:12.102Z,9.37
2018-12-09T10:21:44.344Z,4.93
2018-12-09T10:24:16.337Z,6.30
2018-12-09T10:26:48.798Z,7.67
2018-12-09T10:29:24.954Z,5.57
2018-12-09T10:31:58.100Z,5.80
2018-12-09T10:34:30.241Z,7.87
2018-12-09T10:37:02.399Z,8.07
2018-12-09T10:39:41.627Z,10.00
2018-12-09T10:42:14.049Z,9.73
2018-12-09T10:44:44.777Z,9.03
2018-12-09T10:47:18.714Z,8.87
2018-12-09T10:49:51.608Z,9.10
2018-12-09T10:52:24.837Z,9.03
2018-12-09T10:54:55.744Z,8.90
2018-12-09T10:57:26.056Z,8.73
2018-12-09T10:59:58.779Z,8.40
2018-12-09T11:02:31.140Z,8.10
2018-12-09T11:05:03.805Z,8.47
2018-12-09T11:07:36.004Z,8.87
2018-12-09T11:10:08.241Z,7.87
2018-12-09T11:12:40.969Z,7.47
2018-12-09T11:15:13.453Z,7.90
2018-12-09T11:25:17.208Z,9.33
2018-12-09T11:27:49.352Z,13.03
2018-12-09T11:30:21.641Z,10.43
2018-12-09T11:32:59.033Z,9.03
2018-12-09T11:35:31.947Z,7.93
2018-12-09T11:38:08.233Z,7.87
2018-12-09T11:40:40.464Z,8.13
2018-12-09T11:43:14.201Z,8.60
2018-12-09T11:45:50.611Z,10.47
2018-12-09T11:48:21.604Z,8.97
2018-12-09T11:50:51.769Z,9.20
2018-12-09T11:53:26.549Z,8.93
2018-12-09T11:55:57.244Z,9.90
2018-12-09T11:58:33.409Z,9.57
2018-12-09T12:01:05.534Z,8.93
2018-12-09T12:03:35.661Z,9.13
2018-12-09T12:06:11.893Z,8.93
2018-12-09T12:08:48.466Z,8.47
2018-12-09T12:11:20.591Z,8.53
2018-12-09T12:13:53.625Z,10.80
2018-12-09T12:16:24.517Z,10.17
2018-12-09T12:18:56.955Z,10.53
2018-12-09T12:21:29.060Z,9.60
2018-12-09T12:24:05.929Z,8.57
2018-12-09T12:31:44.683Z,8.87
2018-12-09T12:34:15.207Z,7.77
2018-12-09T12:36:45.335Z,8.03
2018-12-09T12:39:15.447Z,8.43
2018-12-09T12:41:51.895Z,8.20
2018-12-09T12:44:24.037Z,8.13
2018-12-09T12:47:00.296Z,9.40
2018-12-09T12:49:32.446Z,8.50
2018-12-09T12:52:04.827Z,8.00
2018-12-09T12:54:37.253Z,8.90
2018-12-09T12:57:13.376Z,8.87
2018-12-09T12:59:49.374Z,9.33
2018-12-09T13:02:25.584Z,8.33
2018-12-09T13:05:01.733Z,8.00
2018-12-09T13:07:38.003Z,8.27
2018-12-09T13:10:10.387Z,8.30
2018-12-09T13:12:43.282Z,8.00
2018-12-09T13:15:15.374Z,8.27
2018-12-09T13:17:47.533Z,8.17
2018-12-09T13:20:23.773Z,7.90
2018-12-09T13:22:59.912Z,8.70
2018-12-09T13:25:36.894Z,8.77
2018-12-09T13:28:13.099Z,9.13
2018-12-09T13:30:45.727Z,9.07
2018-12-09T13:58:21.648Z,8.57
2018-12-09T14:00:53.711Z,9.17
2018-12-09T14:03:29.993Z,9.00
2018-12-09T14:06:02.157Z,8.13
2018-12-09T14:08:35.235Z,9.63
2018-12-09T14:11:07.539Z,10.20
2018-12-09T14:13:43.740Z,11.50
2018-12-09T14:16:19.827Z,17.90
2018-12-09T14:18:56.095Z,15.87
2018-12-09T14:21:26.212Z,17.80
2018-12-09T14:23:56.861Z,11.20
2018-12-09T14:26:28.935Z,12.47
2018-12-09T14:29:05.207Z,11.70
2018-12-09T14:31:36.468Z,12.10
2018-12-09T14:34:09.407Z,11.63
2018-12-09T14:36:42.381Z,12.00
2018-12-09T14:39:14.739Z,12.03
2018-12-09T14:41:46.778Z,12.00
2018-12-09T14:44:22.931Z,12.27
2018-12-09T14:46:55.465Z,15.33
2018-12-09T14:49:27.737Z,15.03
2018-12-09T14:51:59.800Z,15.50
2018-12-09T14:54:32.452Z,13.17
2018-12-09T14:57:05.380Z,14.13
2018-12-09T14:59:35.689Z,12.93
2018-12-09T15:02:11.972Z,14.10
2018-12-09T15:04:44.288Z,12.90
2018-12-09T15:07:16.690Z,11.27
2018-12-09T15:09:53.054Z,11.13
2018-12-09T15:12:31.692Z,12.93
2018-12-09T15:15:04.736Z,12.83
2018-12-09T15:17:35.618Z,12.60
2018-12-09T15:20:09.011Z,12.00
2018-12-09T15:22:41.875Z,10.13
2018-12-09T15:25:14.781Z,10.23
2018-12-09T15:27:47.007Z,10.17
2018-12-09T15:30:18.071Z,9.40
2018-12-09T15:32:54.223Z,9.97
2018-12-09T15:35:26.355Z,11.50
2018-12-09T15:38:02.607Z,12.33
2018-12-09T15:40:35.556Z,11.17
2018-12-09T15:43:07.727Z,10.40
2018-12-09T15:48:22.472Z,11.50
2018-12-09T15:50:58.833Z,12.00
2018-12-09T15:53:31.760Z,11.20
2018-12-09T15:56:02.751Z,9.93
2018-12-09T15:58:32.966Z,9.87
2018-12-09T16:01:05.250Z,9.40
2018-12-09T16:03:38.177Z,9.80
2018-12-09T16:06:14.601Z,9.30
2018-12-09T16:08:50.744Z,10.57
2018-12-09T16:11:22.758Z,9.60
2018-12-09T16:13:55.130Z,9.40
2018-12-09T16:16:27.418Z,9.30
2018-12-09T16:18:59.553Z,9.10
2018-12-09T16:21:30.801Z,10.13
2018-12-09T16:24:08.615Z,12.90
2018-12-09T16:26:44.870Z,12.93
2018-12-09T16:29:18.014Z,12.47
2018-12-09T16:31:50.219Z,13.67
2018-12-09T16:34:22.348Z,17.20
2018-12-09T16:36:54.649Z,16.03
2018-12-09T16:39:30.602Z,18.13
2018-12-09T16:42:06.881Z,15.50
2018-12-09T16:44:42.940Z,15.47
2018-12-09T16:47:15.200Z,13.07
2018-12-09T16:49:51.428Z,12.17
2018-12-09T16:52:24.241Z,13.67
2018-12-09T16:54:56.537Z,13.13
2018-12-09T16:57:26.841Z,12.57
2018-12-09T16:59:59.010Z,10.17
2018-12-09T17:02:31.537Z,11.03
2018-12-09T17:05:03.809Z,9.73
2018-12-09T17:07:42.243Z,10.87
2018-12-09T17:10:14.996Z,8.40
2018-12-09T17:12:51.931Z,10.73
2018-12-09T17:15:28.152Z,11.07
2018-12-09T17:17:58.775Z,8.60
2018-12-09T17:20:30.864Z,7.10
2018-12-09T17:23:03.919Z,6.30
2018-12-09T17:25:36.203Z,8.30
2018-12-09T17:28:06.554Z,8.73
2018-12-09T17:30:39.535Z,8.60
2018-12-09T17:33:11.895Z,9.67
2018-12-09T17:35:45.347Z,9.37
2018-12-09T17:38:17.824Z,11.57
2018-12-09T17:40:53.880Z,14.20
2018-12-09T17:43:26.454Z,14.53
2018-12-09T17:45:56.524Z,16.60
2018-12-09T17:56:01.908Z,12.90
2018-12-09T17:58:35.046Z,12.53
2018-12-09T18:01:17.968Z,12.80
2018-12-09T18:03:54.227Z,12.90
2018-12-09T18:06:27.429Z,11.90
2018-12-09T18:09:00.548Z,12.10
2018-12-09T18:11:36.715Z,10.73
2018-12-09T18:14:10.915Z,14.10
2018-12-09T18:16:48.107Z,13.13
2018-12-09T18:19:21.200Z,13.50
2018-12-09T18:21:54.155Z,13.37
2018-12-09T18:24:25.387Z,13.23
2018-12-09T18:27:01.611Z,12.37
2018-12-09T18:29:37.811Z,11.80
2018-12-09T18:32:14.078Z,12.37
2018-12-09T18:34:46.992Z,13.80
2018-12-09T18:37:24.363Z,13.87
2018-12-09T18:40:00.691Z,14.50
2018-12-09T18:42:37.682Z,16.10
2018-12-09T18:45:14.000Z,15.10
2018-12-09T18:47:46.941Z,16.23
2018-12-09T18:50:20.015Z,16.17
2018-12-09T18:52:57.168Z,18.63
2018-12-09T18:55:29.900Z,20.33
2018-12-09T18:58:03.004Z,19.83
2018-12-09T19:00:36.591Z,19.20
2018-12-09T19:03:09.480Z,18.90
2018-12-09T19:05:42.459Z,19.13
2018-12-09T19:08:14.745Z,18.90
2018-12-09T19:10:51.319Z,18.00
2018-12-09T19:13:24.148Z,20.40
2018-12-09T19:16:00.855Z,19.37
2018-12-09T19:18:33.415Z,19.43
2018-12-09T19:21:05.771Z,19.93
2018-12-09T19:23:38.472Z,19.90
2018-12-09T19:26:16.728Z,18.90
2018-12-09T19:28:49.494Z,19.53
2018-12-09T19:31:25.759Z,18.83
2018-12-09T19:33:56.104Z,18.67
2018-12-09T19:36:29.162Z,16.67
2018-12-09T19:39:08.276Z,16.87
2018-12-09T19:41:41.382Z,18.07
2018-12-09T19:44:14.463Z,18.00
2018-12-09T19:46:46.735Z,17.57
2018-12-09T19:49:23.056Z,19.40
2018-12-09T19:51:55.799Z,19.13
2018-12-09T19:54:26.063Z,18.50
2018-12-09T20:01:59.152Z,17.53
2018-12-09T20:04:33.125Z,18.13
2018-12-09T20:07:06.920Z,17.13
2018-12-09T20:09:44.306Z,16.97
2018-12-09T20:12:17.754Z,16.93
2018-12-09T20:14:48.691Z,16.77
2018-12-09T20:17:22.046Z,15.13
2018-12-09T20:19:54.933Z,16.33
2018-12-09T20:22:31.180Z,17.50
2018-12-09T20:25:02.378Z,16.70
2018-12-09T20:27:38.591Z,16.77
2018-12-09T20:30:11.596Z,16.43
2018-12-09T20:32:43.759Z,16.43
2018-12-09T20:35:13.966Z,15.67
2018-12-09T20:37:47.204Z,15.27
2018-12-09T20:40:20.248Z,16.43
2018-12-09T20:42:56.369Z,17.20
2018-12-09T20:45:29.176Z,16.37
2018-12-09T20:48:02.685Z,16.93
2018-12-09T20:50:33.548Z,15.10
2018-12-09T20:53:06.527Z,15.23
2018-12-09T20:55:38.871Z,15.17
2018-12-09T20:58:12.037Z,15.43
2018-12-09T21:05:46.307Z,13.90
2018-12-09T21:08:22.865Z,14.43
2018-12-09T21:10:55.559Z,14.20
2018-12-09T21:13:31.805Z,16.17
2018-12-09T21:16:04.756Z,16.73
2018-12-09T21:18:36.990Z,17.30
2018-12-09T21:21:09.331Z,15.43
2018-12-09T21:23:42.267Z,15.47
2018-12-09T21:26:14.536Z,15.33
2018-12-09T21:28:47.482Z,15.40
2018-12-09T21:31:26.092Z,15.90
2018-12-09T21:34:00.888Z,15.97
2018-12-09T21:36:33.911Z,14.23
2018-12-09T21:39:07.590Z,14.97
2018-12-09T21:41:40.601Z,14.93
2018-12-09T21:44:16.885Z,14.43
2018-12-09T21:46:47.136Z,12.87
2018-12-09T21:49:23.669Z,15.10
2018-12-09T21:51:55.892Z,13.70
2018-12-09T21:54:27.961Z,12.17
2018-12-09T21:57:00.181Z,13.67
2018-12-09T21:59:32.306Z,13.30
2018-12-09T22:02:05.333Z,13.17
2018-12-09T22:04:41.901Z,13.43
2018-12-09T22:07:18.961Z,15.20
2018-12-09T22:09:55.970Z,14.77
2018-12-09T22:12:27.040Z,14.33
2018-12-09T22:14:59.260Z,14.27
2018-12-09T22:17:35.338Z,13.50
2018-12-09T22:20:07.615Z,12.33
2018-12-09T22:22:43.774Z,12.50
2018-12-09T22:25:20.812Z,12.20
2018-12-09T22:27:52.897Z,12.07
2018-12-09T22:30:28.996Z,11.83
2018-12-09T22:33:06.926Z,11.57
2018-12-09T22:35:39.263Z,11.23
2018-12-09T22:38:11.940Z,11.33
2018-12-09T22:40:44.123Z,11.13
2018-12-09T22:43:16.380Z,11.30
2018-12-09T22:45:53.482Z,12.07
2018-12-09T22:48:29.660Z,13.10
2018-12-09T22:51:05.822Z,12.60
2018-12-09T22:53:42.304Z,12.00
2018-12-09T22:56:18.513Z,12.87
2018-12-09T22:58:53.374Z,13.23
2018-12-09T23:01:24.106Z,12.77
2018-12-09T23:04:00.158Z,13.23
2018-12-09T23:06:33.049Z,12.67
2018-12-09T23:09:09.420Z,13.77
2018-12-09T23:11:42.352Z,13.30
2018-12-09T23:14:18.535Z,13.20
2018-12-09T23:16:50.732Z,12.63
2018-12-09T23:19:26.850Z,13.33
2018-12-09T23:22:02.985Z,13.30
2018-12-09T23:24:39.993Z,12.83
2018-12-09T23:27:12.827Z,12.77
2018-12-09T23:29:48.983Z,12.97
2018-12-09T23:32:25.184Z,11.60
2018-12-09T23:34:58.166Z,11.80
2018-12-09T23:37:28.199Z,12.67
2018-12-09T23:40:06.709Z,11.83
2018-12-09T23:42:39.384Z,11.60
2018-12-09T23:45:11.708Z,11.93
2018-12-09T23:47:43.926Z,11.67
2018-12-09T23:50:15.915Z,10.57
2018-12-09T23:52:51.954Z,11.00
2018-12-09T23:55:28.310Z,11.13
2018-12-09T23:58:00.456Z,9.40
